createdAt,value
2019-06-10T00:02:08.249Z,2.67
2019-06-10T00:04:37.041Z,2.73
2019-06-10T00:07:05.822Z,3.03
2019-06-10T00:09:34.913Z,2.83
2019-06-10T00:12:04.752Z,2.50
2019-06-10T00:14:32.630Z,2.83
2019-06-10T00:17:01.935Z,2.50
2019-06-10T00:19:31.773Z,2.50
2019-06-10T00:22:01.995Z,2.60
2019-06-10T00:24:31.353Z,2.60
2019-06-10T00:27:00.321Z,2.40
2019-06-10T00:29:31.122Z,2.50
2019-06-10T00:31:58.540Z,2.67
2019-06-10T00:34:27.020Z,2.60
2019-06-10T00:36:54.757Z,2.50
2019-06-10T00:39:22.515Z,2.70
2019-06-10T00:41:52.132Z,2.87
2019-06-10T00:44:20.631Z,2.50
2019-06-10T00:46:48.464Z,2.17
2019-06-10T00:49:16.167Z,2.50
2019-06-10T00:51:44.021Z,2.60
2019-06-10T00:54:15.327Z,2.70
2019-06-10T00:56:42.808Z,2.57
2019-06-10T00:59:14.804Z,2.90
2019-06-10T01:01:41.585Z,2.67
2019-06-10T01:04:14.397Z,2.70
2019-06-10T01:06:42.166Z,2.50
2019-06-10T01:09:11.438Z,2.87
2019-06-10T01:11:41.062Z,2.47
2019-06-10T01:14:12.072Z,3.20
2019-06-10T01:16:38.082Z,2.90
2019-06-10T01:19:06.353Z,2.57
2019-06-10T01:21:34.895Z,2.60
2019-06-10T01:24:02.641Z,3.13
2019-06-10T01:26:31.080Z,3.10
2019-06-10T01:29:00.985Z,3.07
2019-06-10T01:31:28.645Z,2.60
2019-06-10T01:33:56.323Z,3.20
2019-06-10T01:36:24.092Z,2.53
2019-06-10T01:38:51.867Z,2.83
2019-06-10T01:41:21.374Z,3.00
2019-06-10T01:43:51.260Z,2.90
2019-06-10T01:46:21.136Z,3.10
2019-06-10T01:48:51.839Z,2.97
2019-06-10T01:51:21.216Z,3.03
2019-06-10T01:53:51.033Z,2.83
2019-06-10T01:56:19.093Z,3.17
2019-06-10T01:58:48.053Z,3.00
2019-06-10T02:01:38.202Z,2.80
2019-06-10T02:04:06.502Z,3.13
2019-06-10T02:06:34.325Z,3.47
2019-06-10T02:09:05.078Z,3.23
2019-06-10T02:11:33.886Z,3.23
2019-06-10T02:14:02.363Z,3.23
2019-06-10T02:16:32.509Z,3.83
2019-06-10T02:19:01.442Z,3.37
2019-06-10T02:21:31.143Z,3.10
2019-06-10T02:24:01.009Z,3.40
2019-06-10T02:26:30.834Z,3.30
2019-06-10T02:29:00.554Z,3.40
2019-06-10T02:31:35.610Z,2.80
2019-06-10T02:34:02.257Z,3.30
2019-06-10T02:36:35.500Z,3.57
2019-06-10T02:38:58.827Z,3.20
2019-06-10T02:41:31.994Z,3.57
2019-06-10T02:43:57.416Z,3.40
2019-06-10T02:46:31.173Z,3.23
2019-06-10T02:48:55.310Z,3.10
2019-06-10T02:51:28.648Z,3.47
2019-06-10T02:53:53.786Z,3.27
2019-06-10T02:56:29.973Z,3.80
2019-06-10T02:58:53.632Z,3.10
2019-06-10T03:01:27.768Z,3.50
2019-06-10T03:03:54.244Z,3.53
2019-06-10T03:06:44.719Z,3.67
2019-06-10T03:09:14.187Z,3.97
2019-06-10T03:11:44.497Z,3.50
2019-06-10T03:14:13.010Z,3.57
2019-06-10T03:16:54.116Z,3.90
2019-06-10T03:19:38.453Z,4.20
2019-06-10T03:21:53.427Z,4.07
2019-06-10T03:24:22.408Z,3.83
2019-06-10T03:26:52.227Z,4.50
2019-06-10T03:29:21.225Z,4.30
2019-06-10T03:31:54.783Z,4.40
2019-06-10T03:34:21.846Z,5.00
2019-06-10T03:36:49.610Z,5.20
2019-06-10T03:39:18.557Z,5.23
2019-06-10T03:41:46.428Z,5.60
2019-06-10T03:44:16.838Z,5.40
2019-06-10T03:46:44.667Z,5.87
2019-06-10T03:49:12.794Z,6.43
2019-06-10T03:51:42.770Z,7.13
2019-06-10T03:54:12.869Z,7.37
2019-06-10T03:56:42.763Z,7.60
2019-06-10T03:59:23.990Z,7.53
2019-06-10T04:01:52.758Z,7.97
2019-06-10T04:04:23.466Z,7.40
2019-06-10T04:06:52.933Z,8.17
2019-06-10T04:09:19.613Z,8.33
2019-06-10T04:11:47.387Z,9.17
2019-06-10T04:14:15.143Z,9.00
2019-06-10T04:16:43.452Z,9.13
2019-06-10T04:19:13.187Z,9.80
2019-06-10T04:21:43.150Z,10.03
2019-06-10T04:24:12.825Z,10.07
2019-06-10T04:26:40.384Z,10.27
2019-06-10T04:29:08.098Z,10.50
2019-06-10T04:31:35.872Z,10.53
2019-06-10T04:34:03.796Z,11.57
2019-06-10T04:36:33.372Z,11.47
2019-06-10T04:39:03.218Z,12.00
2019-06-10T04:41:32.442Z,11.77
2019-06-10T04:44:02.663Z,12.67
2019-06-10T04:46:32.322Z,12.33
2019-06-10T04:48:59.723Z,13.07
2019-06-10T04:51:28.454Z,14.10
2019-06-10T04:53:57.013Z,13.93
2019-06-10T04:56:27.416Z,12.77
2019-06-10T04:58:54.355Z,13.90
2019-06-10T05:01:34.925Z,12.87
2019-06-10T05:04:03.298Z,13.03
2019-06-10T05:06:32.781Z,13.13
2019-06-10T05:09:00.814Z,13.60
2019-06-10T05:11:30.169Z,13.47
2019-06-10T05:13:58.227Z,13.30
2019-06-10T05:16:30.030Z,12.87
2019-06-10T05:18:55.691Z,13.83
2019-06-10T05:21:26.689Z,13.27
2019-06-10T05:23:53.389Z,13.57
2019-06-10T05:26:25.012Z,13.67
2019-06-10T05:28:52.432Z,12.83
2019-06-10T05:31:20.301Z,12.80
2019-06-10T05:33:48.167Z,12.00
2019-06-10T05:36:16.311Z,13.03
2019-06-10T05:38:44.576Z,13.47
2019-06-10T05:41:13.338Z,12.70
2019-06-10T05:43:43.278Z,12.23
2019-06-10T05:46:13.371Z,12.63
2019-06-10T05:48:43.495Z,12.13
2019-06-10T05:51:12.378Z,11.37
2019-06-10T05:53:42.626Z,11.63
2019-06-10T05:56:09.763Z,12.23
2019-06-10T05:58:37.511Z,11.87
2019-06-10T06:01:06.155Z,11.93
2019-06-10T06:03:37.672Z,12.70
2019-06-10T06:06:06.306Z,11.97
2019-06-10T06:08:35.501Z,11.83
2019-06-10T06:11:03.555Z,12.07
2019-06-10T06:13:34.194Z,11.70
2019-06-10T06:16:03.164Z,12.03
2019-06-10T06:18:34.563Z,11.93
2019-06-10T06:21:20.146Z,12.40
2019-06-10T06:23:33.083Z,12.70
2019-06-10T06:26:00.042Z,12.37
2019-06-10T06:28:27.975Z,11.97
2019-06-10T06:30:56.322Z,11.43
2019-06-10T06:33:24.188Z,11.97
2019-06-10T06:35:54.698Z,12.03
2019-06-10T06:38:22.535Z,12.43
2019-06-10T06:40:53.555Z,11.73
2019-06-10T06:43:22.089Z,11.50
2019-06-10T06:45:49.716Z,11.13
2019-06-10T06:48:17.396Z,10.13
2019-06-10T06:51:00.159Z,11.20
2019-06-10T06:53:25.566Z,10.83
2019-06-10T06:55:44.459Z,11.30
2019-06-10T06:58:12.566Z,12.00
2019-06-10T07:00:57.888Z,11.80
2019-06-10T07:03:12.578Z,11.70
2019-06-10T07:05:44.315Z,11.53
2019-06-10T07:08:13.257Z,11.73
2019-06-10T07:10:43.548Z,11.37
2019-06-10T07:13:12.925Z,11.50
2019-06-10T07:15:47.087Z,11.27
2019-06-10T07:18:13.048Z,11.27
2019-06-10T07:20:45.367Z,11.50
2019-06-10T07:23:12.914Z,10.63
2019-06-10T07:25:44.759Z,11.00
2019-06-10T07:28:12.446Z,11.07
2019-06-10T07:30:46.030Z,10.60
2019-06-10T07:33:09.253Z,10.13
2019-06-10T07:35:37.275Z,10.77
2019-06-10T07:38:05.265Z,10.63
2019-06-10T07:40:34.437Z,11.23
2019-06-10T07:43:02.632Z,11.17
2019-06-10T07:45:33.388Z,11.70
2019-06-10T07:48:02.694Z,11.13
2019-06-10T07:50:30.089Z,11.30
2019-06-10T07:52:57.833Z,10.83
2019-06-10T07:55:25.619Z,10.03
2019-06-10T07:57:53.422Z,10.57
2019-06-10T08:00:22.769Z,10.40
2019-06-10T08:02:52.882Z,10.17
2019-06-10T08:05:20.239Z,10.40
2019-06-10T08:07:49.081Z,9.77
2019-06-10T08:10:17.400Z,10.00
2019-06-10T08:12:46.981Z,9.70
2019-06-10T08:15:15.032Z,9.77
2019-06-10T08:17:45.587Z,10.37
2019-06-10T08:20:13.478Z,10.13
2019-06-10T08:22:50.101Z,9.63
2019-06-10T08:25:12.419Z,8.73
2019-06-10T08:27:41.341Z,9.73
2019-06-10T08:30:21.171Z,9.80
2019-06-10T08:32:43.397Z,9.60
2019-06-10T08:35:10.012Z,9.20
2019-06-10T08:37:38.742Z,9.03
2019-06-10T08:40:08.050Z,9.00
2019-06-10T08:42:36.582Z,9.23
2019-06-10T08:45:04.792Z,8.60
2019-06-10T08:47:33.034Z,9.20
2019-06-10T08:50:02.598Z,8.73
2019-06-10T08:52:46.841Z,9.33
2019-06-10T08:55:03.138Z,8.50
2019-06-10T08:57:30.359Z,8.13
2019-06-10T08:59:58.031Z,8.03
2019-06-10T09:02:25.792Z,7.73
2019-06-10T09:04:53.886Z,8.00
2019-06-10T09:07:23.755Z,8.10
2019-06-10T09:09:54.776Z,7.97
2019-06-10T09:12:30.349Z,7.60
2019-06-10T09:14:53.406Z,7.90
2019-06-10T09:17:22.864Z,7.97
2019-06-10T09:19:51.856Z,7.90
2019-06-10T09:22:23.507Z,8.13
2019-06-10T09:24:54.915Z,7.63
2019-06-10T09:27:19.796Z,6.90
2019-06-10T09:29:50.660Z,7.00
2019-06-10T09:32:17.205Z,7.00
2019-06-10T09:34:51.610Z,7.40
2019-06-10T09:37:14.519Z,7.10
2019-06-10T09:39:48.995Z,7.53
2019-06-10T09:42:14.367Z,7.30
2019-06-10T09:44:45.897Z,6.80
2019-06-10T09:47:14.311Z,6.93
2019-06-10T09:49:46.089Z,7.10
2019-06-10T09:52:13.550Z,6.87
2019-06-10T09:54:47.290Z,6.83
2019-06-10T09:57:12.651Z,7.00
2019-06-10T09:59:44.475Z,7.50
2019-06-10T10:02:12.587Z,7.10
2019-06-10T10:04:42.316Z,7.07
2019-06-10T10:07:12.085Z,6.53
2019-06-10T10:09:45.441Z,6.70
2019-06-10T10:12:12.218Z,6.63
2019-06-10T10:14:42.351Z,6.40
2019-06-10T10:17:12.689Z,6.80
2019-06-10T10:19:39.816Z,6.87
2019-06-10T10:22:10.889Z,6.77
2019-06-10T10:24:37.443Z,6.93
2019-06-10T10:27:09.106Z,6.47
2019-06-10T10:29:35.000Z,6.50
2019-06-10T10:32:02.920Z,6.13
2019-06-10T10:34:33.336Z,6.77
2019-06-10T10:37:02.867Z,7.33
2019-06-10T10:39:32.738Z,7.33
2019-06-10T10:42:00.356Z,6.30
2019-06-10T10:44:28.117Z,6.83
2019-06-10T10:46:55.990Z,7.10
2019-06-10T10:49:23.758Z,7.13
2019-06-10T10:51:51.982Z,6.77
2019-06-10T10:54:32.208Z,7.33
2019-06-10T10:56:55.257Z,6.53
2019-06-10T10:59:22.072Z,6.83
2019-06-10T11:01:50.035Z,6.87
2019-06-10T11:04:17.781Z,6.97
2019-06-10T11:06:46.205Z,6.60
2019-06-10T11:09:18.670Z,6.17
2019-06-10T11:11:47.210Z,6.70
2019-06-10T11:14:15.463Z,6.80
2019-06-10T11:16:43.356Z,7.33
2019-06-10T11:19:13.040Z,7.20
2019-06-10T11:21:42.664Z,7.20
2019-06-10T11:24:14.183Z,7.93
2019-06-10T11:26:43.157Z,6.97
2019-06-10T11:29:10.682Z,6.83
2019-06-10T11:31:38.564Z,8.03
2019-06-10T11:34:06.325Z,6.53
2019-06-10T11:36:34.095Z,7.10
2019-06-10T11:39:02.837Z,7.30
2019-06-10T11:41:32.476Z,6.60
2019-06-10T11:44:00.265Z,6.90
2019-06-10T11:46:27.989Z,6.17
2019-06-10T11:48:58.570Z,6.77
2019-06-10T11:51:25.413Z,6.53
2019-06-10T11:53:56.885Z,6.10
2019-06-10T11:56:22.740Z,6.07
2019-06-10T11:58:53.410Z,5.93
2019-06-10T12:01:42.445Z,6.20
2019-06-10T12:04:09.674Z,7.00
2019-06-10T12:06:37.406Z,5.90
2019-06-10T12:09:07.785Z,5.90
2019-06-10T12:11:35.548Z,5.90
2019-06-10T12:14:04.745Z,5.80
2019-06-10T12:19:16.189Z,6.33
2019-06-10T12:21:43.998Z,6.20
2019-06-10T12:24:12.683Z,6.17
2019-06-10T12:26:43.417Z,5.87
2019-06-10T12:29:12.432Z,6.03
2019-06-10T12:31:42.771Z,6.50
2019-06-10T12:34:12.336Z,6.00
2019-06-10T12:36:39.993Z,6.27
2019-06-10T12:39:10.732Z,6.23
2019-06-10T12:41:38.139Z,6.60
2019-06-10T12:44:06.329Z,5.83
2019-06-10T12:46:35.007Z,6.20
2019-06-10T12:49:08.182Z,6.03
2019-06-10T12:51:32.803Z,6.03
2019-06-10T12:54:05.760Z,6.47
2019-06-10T12:56:32.626Z,6.03
2019-06-10T12:59:02.826Z,6.40
2019-06-10T13:01:30.496Z,6.10
2019-06-10T13:03:59.912Z,6.23
2019-06-10T13:06:27.792Z,5.97
2019-06-10T13:08:57.960Z,6.10
2019-06-10T13:11:26.156Z,6.40
2019-06-10T13:13:56.250Z,6.37
2019-06-10T13:16:24.165Z,5.97
2019-06-10T13:18:57.674Z,6.60
2019-06-10T13:21:25.643Z,6.10
2019-06-10T13:23:54.481Z,5.90
2019-06-10T13:26:23.460Z,6.77
2019-06-10T13:28:52.554Z,5.97
2019-06-10T13:31:20.494Z,6.60
2019-06-10T13:33:48.221Z,5.83
2019-06-10T13:36:15.928Z,5.53
2019-06-10T13:38:43.676Z,6.13
2019-06-10T13:41:11.911Z,5.97
2019-06-10T13:43:39.734Z,6.20
2019-06-10T13:46:10.458Z,6.60
2019-06-10T13:48:37.422Z,6.00
2019-06-10T13:51:09.141Z,6.63
2019-06-10T13:53:35.037Z,6.17
2019-06-10T13:56:27.341Z,5.90
2019-06-10T13:58:32.516Z,5.67
2019-06-10T14:01:04.016Z,6.00
2019-06-10T14:03:32.656Z,5.77
2019-06-10T14:06:11.247Z,6.20
2019-06-10T14:08:31.894Z,5.90
2019-06-10T14:11:03.392Z,5.90
2019-06-10T14:13:29.334Z,6.33
2019-06-10T14:15:57.145Z,6.30
2019-06-10T14:18:25.105Z,6.27
2019-06-10T14:20:53.420Z,5.53
2019-06-10T14:23:22.139Z,5.80
2019-06-10T14:25:52.368Z,5.80
2019-06-10T14:28:38.077Z,6.00
2019-06-10T14:30:49.634Z,5.70
2019-06-10T14:33:17.670Z,6.10
2019-06-10T14:35:45.553Z,5.40
2019-06-10T14:38:15.804Z,5.83
2019-06-10T14:40:43.215Z,5.73
2019-06-10T14:43:13.421Z,5.80
2019-06-10T14:45:42.326Z,5.93
2019-06-10T14:48:15.164Z,6.20
2019-06-10T14:50:43.297Z,6.27
2019-06-10T14:53:11.721Z,5.70
2019-06-10T14:55:43.882Z,6.07
2019-06-10T14:58:13.737Z,5.80
2019-06-10T15:00:45.484Z,6.17
2019-06-10T15:03:12.333Z,6.50
2019-06-10T15:05:43.173Z,5.40
2019-06-10T15:08:13.840Z,6.67
2019-06-10T15:10:40.047Z,5.97
2019-06-10T15:13:07.809Z,6.50
2019-06-10T15:15:35.720Z,6.47
2019-06-10T15:18:03.789Z,5.97
2019-06-10T15:20:32.953Z,6.33
2019-06-10T15:23:00.842Z,6.17
2019-06-10T15:25:28.566Z,6.30
2019-06-10T15:27:56.315Z,5.77
2019-06-10T15:30:28.072Z,6.10
2019-06-10T15:32:53.945Z,6.00
2019-06-10T15:35:24.309Z,6.07
2019-06-10T15:37:52.766Z,5.97
2019-06-10T15:40:23.073Z,5.43
2019-06-10T15:42:53.102Z,5.67
2019-06-10T15:45:21.154Z,5.83
2019-06-10T15:47:49.085Z,5.83
2019-06-10T15:50:17.301Z,6.07
2019-06-10T15:52:46.437Z,5.83
2019-06-10T15:55:33.509Z,5.33
2019-06-10T15:57:46.541Z,5.87
2019-06-10T16:00:20.233Z,5.73
2019-06-10T16:02:44.157Z,5.80
2019-06-10T16:05:14.373Z,6.10
2019-06-10T16:07:42.412Z,5.63
2019-06-10T16:10:12.828Z,5.80
2019-06-10T16:12:43.633Z,6.10
2019-06-10T16:15:13.356Z,5.97
2019-06-10T16:17:43.038Z,5.73
2019-06-10T16:20:13.044Z,5.60
2019-06-10T16:22:42.791Z,5.47
2019-06-10T16:25:12.736Z,5.97
2019-06-10T16:27:48.477Z,6.20
2019-06-10T16:30:12.934Z,5.90
2019-06-10T16:32:41.076Z,6.07
2019-06-10T16:35:09.735Z,6.27
2019-06-10T16:37:37.567Z,5.60
2019-06-10T16:40:06.546Z,6.00
2019-06-10T16:42:34.521Z,6.00
2019-06-10T16:45:02.662Z,6.00
2019-06-10T16:47:32.657Z,5.80
2019-06-10T16:50:03.037Z,5.97
2019-06-10T16:52:34.074Z,5.90
2019-06-10T16:55:02.308Z,5.67
2019-06-10T16:57:30.227Z,6.23
2019-06-10T16:59:58.295Z,5.90
2019-06-10T17:02:26.845Z,5.83
2019-06-10T17:04:58.270Z,6.07
2019-06-10T17:07:24.784Z,5.90
2019-06-10T17:09:52.991Z,5.47
2019-06-10T17:12:24.642Z,5.70
2019-06-10T17:14:52.686Z,5.77
2019-06-10T17:17:20.532Z,6.00
2019-06-10T17:19:50.328Z,6.33
2019-06-10T17:22:18.747Z,5.70
2019-06-10T17:24:46.796Z,5.70
2019-06-10T17:27:15.517Z,6.47
2019-06-10T17:29:43.368Z,5.90
2019-06-10T17:32:13.137Z,5.73
2019-06-10T17:34:42.333Z,6.47
2019-06-10T17:37:12.371Z,5.60
2019-06-10T17:39:42.615Z,6.20
2019-06-10T17:42:12.244Z,6.13
2019-06-10T17:44:39.396Z,5.80
2019-06-10T17:47:07.249Z,5.87
2019-06-10T17:49:35.049Z,6.30
2019-06-10T17:52:02.899Z,5.87
2019-06-10T17:54:30.778Z,6.13
2019-06-10T17:56:58.936Z,6.63
2019-06-10T17:59:26.900Z,6.47
2019-06-10T18:01:58.486Z,5.97
2019-06-10T18:04:27.348Z,6.80
2019-06-10T18:06:55.157Z,6.80
2019-06-10T18:09:24.487Z,7.53
2019-06-10T18:11:52.641Z,6.87
2019-06-10T18:14:22.784Z,6.83
2019-06-10T18:16:52.442Z,7.23
2019-06-10T18:19:22.251Z,7.40
2019-06-10T18:21:52.144Z,6.93
2019-06-10T18:24:21.426Z,7.60
2019-06-10T18:26:49.351Z,7.60
2019-06-10T18:29:17.086Z,7.23
2019-06-10T18:31:44.886Z,6.87
2019-06-10T18:34:13.346Z,7.70
2019-06-10T18:36:42.746Z,6.87
2019-06-10T18:39:12.379Z,7.47
2019-06-10T18:41:42.115Z,7.00
2019-06-10T18:44:21.832Z,6.93
2019-06-10T18:46:40.202Z,7.17
2019-06-10T18:49:08.761Z,6.70
2019-06-10T18:51:37.404Z,7.30
2019-06-10T18:54:05.428Z,6.93
2019-06-10T18:56:35.323Z,7.73
2019-06-10T18:59:15.769Z,7.07
2019-06-10T19:01:32.861Z,7.53
2019-06-10T19:04:05.153Z,8.50
2019-06-10T19:06:36.542Z,8.53
2019-06-10T19:09:06.214Z,7.97
2019-06-10T19:11:35.665Z,7.33
2019-06-10T19:14:04.065Z,7.97
2019-06-10T19:16:33.736Z,8.67
2019-06-10T19:19:02.701Z,7.63
2019-06-10T19:21:32.370Z,7.40
2019-06-10T19:24:03.058Z,7.57
2019-06-10T19:26:33.311Z,8.00
2019-06-10T19:29:00.498Z,8.57
2019-06-10T19:31:28.685Z,8.13
2019-06-10T19:33:56.813Z,8.80
2019-06-10T19:36:25.881Z,9.80
2019-06-10T19:38:53.724Z,9.57
2019-06-10T19:41:22.420Z,9.47
2019-06-10T19:43:52.877Z,10.60
2019-06-10T19:46:23.341Z,10.70
2019-06-10T19:48:59.488Z,9.13
2019-06-10T19:51:21.286Z,9.23
2019-06-10T19:53:52.548Z,9.03
2019-06-10T19:56:24.163Z,9.27
2019-06-10T19:58:52.945Z,9.23
2019-06-10T20:01:23.531Z,9.30
2019-06-10T20:03:52.102Z,9.37
2019-06-10T20:06:22.237Z,9.73
2019-06-10T20:08:52.263Z,9.50
2019-06-10T20:11:22.891Z,10.53
2019-06-10T20:13:53.079Z,9.60
2019-06-10T20:16:22.748Z,9.53
2019-06-10T20:18:53.611Z,8.90
2019-06-10T20:21:22.691Z,8.60
2019-06-10T20:23:53.016Z,8.87
2019-06-10T20:26:22.519Z,8.93
2019-06-10T20:28:54.683Z,8.43
2019-06-10T20:31:22.164Z,8.53
2019-06-10T20:33:52.515Z,9.43
2019-06-10T20:36:25.822Z,9.47
2019-06-10T20:38:53.477Z,8.97
2019-06-10T20:41:21.638Z,9.10
2019-06-10T20:43:55.065Z,9.33
2019-06-10T20:46:23.463Z,8.60
2019-06-10T20:48:54.423Z,8.63
2019-06-10T20:51:22.648Z,8.93
2019-06-10T20:53:53.279Z,8.93
2019-06-10T20:56:23.421Z,9.03
2019-06-10T20:58:52.470Z,9.17
2019-06-10T21:01:25.583Z,9.37
2019-06-10T21:03:54.337Z,9.43
2019-06-10T21:06:24.865Z,9.53
2019-06-10T21:08:55.649Z,10.53
2019-06-10T21:11:24.436Z,11.57
2019-06-10T21:13:55.664Z,11.60
2019-06-10T21:16:23.292Z,10.27
2019-06-10T21:18:55.478Z,9.77
2019-06-10T21:21:22.840Z,9.60
2019-06-10T21:23:54.131Z,9.50
2019-06-10T21:26:23.587Z,9.73
2019-06-10T21:28:55.029Z,10.03
2019-06-10T21:31:23.108Z,9.40
2019-06-10T21:33:55.392Z,10.17
2019-06-10T21:36:22.966Z,10.83
2019-06-10T21:38:55.709Z,12.00
2019-06-10T21:41:22.888Z,10.37
2019-06-10T21:43:57.544Z,10.83
2019-06-10T21:46:22.698Z,11.00
2019-06-10T21:48:52.544Z,9.50
2019-06-10T21:51:22.815Z,10.27
2019-06-10T21:53:53.286Z,10.73
2019-06-10T21:56:22.515Z,9.43
2019-06-10T21:58:54.143Z,9.47
2019-06-10T22:01:22.570Z,9.57
2019-06-10T22:03:58.757Z,9.70
2019-06-10T22:06:22.843Z,9.93
2019-06-10T22:08:54.583Z,9.10
2019-06-10T22:11:23.360Z,10.23
2019-06-10T22:13:54.263Z,10.13
2019-06-10T22:16:22.646Z,9.80
2019-06-10T22:18:50.821Z,10.17
2019-06-10T22:21:18.641Z,10.10
2019-06-10T22:23:46.709Z,9.90
2019-06-10T22:26:14.478Z,10.23
2019-06-10T22:28:43.309Z,10.53
2019-06-10T22:31:19.073Z,10.07
2019-06-10T22:33:43.023Z,10.60
2019-06-10T22:36:12.890Z,9.80
2019-06-10T22:38:40.245Z,11.20
2019-06-10T22:41:07.939Z,10.90
2019-06-10T22:43:35.746Z,10.63
2019-06-10T22:46:12.338Z,11.43
2019-06-10T22:48:42.462Z,10.77
2019-06-10T22:51:12.259Z,10.67
2019-06-10T22:53:42.367Z,11.10
2019-06-10T22:56:09.662Z,11.13
2019-06-10T22:58:37.993Z,11.87
2019-06-10T23:01:05.813Z,11.70
2019-06-10T23:03:33.756Z,12.33
2019-06-10T23:06:02.590Z,11.33
2019-06-10T23:08:30.677Z,12.10
2019-06-10T23:10:59.781Z,12.43
2019-06-10T23:13:27.626Z,12.27
2019-06-10T23:15:56.781Z,11.83
2019-06-10T23:18:25.115Z,12.33
2019-06-10T23:20:55.872Z,12.90
2019-06-10T23:23:23.359Z,12.83
2019-06-10T23:25:51.747Z,12.27
2019-06-10T23:28:22.056Z,12.10
2019-06-10T23:30:49.990Z,11.43
2019-06-10T23:33:17.896Z,11.67
2019-06-10T23:35:47.696Z,11.93
2019-06-10T23:38:15.672Z,12.40
2019-06-10T23:40:43.533Z,12.00
2019-06-10T23:43:13.263Z,11.97
2019-06-10T23:45:42.252Z,11.70
2019-06-10T23:48:10.233Z,11.23
2019-06-10T23:50:37.980Z,11.67
2019-06-10T23:53:07.849Z,12.30
2019-06-10T23:55:36.318Z,12.47
2019-06-10T23:58:04.202Z,11.97
